createdAt,value
2022-12-14T00:01:28.132Z,27.77
2022-12-14T00:03:56.357Z,28.17
2022-12-14T00:06:31.511Z,26.75
2022-12-14T00:09:04.692Z,27.58
2022-12-14T00:11:33.621Z,28.27
2022-12-14T00:14:02.426Z,26.52
2022-12-14T00:16:31.662Z,26.38
2022-12-14T00:19:00.486Z,27.85
2022-12-14T00:21:27.871Z,26.65
2022-12-14T00:23:55.601Z,25.67
2022-12-14T00:26:24.986Z,25.73
2022-12-14T00:28:53.670Z,27.65
2022-12-14T00:31:21.649Z,26.83
2022-12-14T00:33:48.816Z,25.85
2022-12-14T00:36:15.510Z,26.80
2022-12-14T00:38:42.778Z,26.48
2022-12-14T00:41:10.219Z,27.73
2022-12-14T00:43:37.164Z,27.90
2022-12-14T00:46:03.998Z,25.95
2022-12-14T00:48:31.776Z,26.23
2022-12-14T00:50:58.965Z,27.27
2022-12-14T00:53:26.469Z,27.38
2022-12-14T00:55:53.227Z,28.13
2022-12-14T00:58:22.832Z,26.63
2022-12-14T01:01:03.094Z,26.73
2022-12-14T01:03:30.636Z,27.85
2022-12-14T01:05:57.663Z,27.58
2022-12-14T01:08:24.590Z,28.20
2022-12-14T01:10:52.157Z,26.52
2022-12-14T01:13:19.016Z,25.55
2022-12-14T01:15:45.787Z,26.58
2022-12-14T01:18:13.057Z,26.33
2022-12-14T01:20:39.720Z,26.98
2022-12-14T01:23:06.418Z,26.77
2022-12-14T01:25:33.098Z,28.45
2022-12-14T01:27:59.742Z,28.63
2022-12-14T01:30:26.431Z,28.20
2022-12-14T01:32:53.257Z,28.02
2022-12-14T01:35:19.898Z,26.58
2022-12-14T01:37:48.995Z,26.92
2022-12-14T01:40:16.412Z,27.77
2022-12-14T01:42:43.132Z,28.13
2022-12-14T01:45:22.629Z,27.73
2022-12-14T01:47:56.804Z,28.55
2022-12-14T01:50:33.463Z,28.08
2022-12-14T01:53:05.292Z,27.70
2022-12-14T01:55:48.711Z,26.83
2022-12-14T01:58:20.727Z,25.73
2022-12-14T02:00:47.696Z,26.98
2022-12-14T02:03:22.150Z,26.88
2022-12-14T02:05:55.253Z,26.90
2022-12-14T02:08:24.383Z,25.67
2022-12-14T02:10:53.285Z,26.00
2022-12-14T02:13:23.317Z,25.17
2022-12-14T02:18:24.624Z,25.85
2022-12-14T02:21:17.630Z,26.00
2022-12-14T02:24:06.216Z,24.45
2022-12-14T02:26:32.854Z,26.67
2022-12-14T02:29:07.750Z,26.88
2022-12-14T02:31:48.929Z,26.73
2022-12-14T02:34:37.362Z,27.95
2022-12-14T02:37:22.665Z,27.05
2022-12-14T02:40:15.212Z,28.50
2022-12-14T02:42:48.111Z,25.95
2022-12-14T02:45:44.123Z,26.48
2022-12-14T02:48:22.707Z,25.92
2022-12-14T02:50:55.141Z,26.10
2022-12-14T02:53:33.560Z,29.02
2022-12-14T02:56:05.400Z,28.35
2022-12-14T02:58:48.823Z,27.85
2022-12-14T03:01:19.368Z,26.23
2022-12-14T03:03:46.400Z,30.38
2022-12-14T03:06:28.398Z,28.27
2022-12-14T03:09:03.380Z,27.98
2022-12-14T03:11:58.588Z,28.67
2022-12-14T03:14:37.229Z,28.30
2022-12-14T03:17:10.256Z,28.60
2022-12-14T03:19:50.163Z,31.05
2022-12-14T03:22:32.651Z,30.02
2022-12-14T03:25:03.805Z,30.70
2022-12-14T03:27:32.951Z,31.00
2022-12-14T03:30:04.822Z,30.73
2022-12-14T03:32:33.779Z,29.95
2022-12-14T03:35:11.192Z,27.40
2022-12-14T03:37:40.630Z,29.38
2022-12-14T03:40:10.851Z,29.98
2022-12-14T03:42:59.453Z,28.85
2022-12-14T03:45:50.206Z,29.05
2022-12-14T03:48:31.904Z,28.27
2022-12-14T03:51:11.560Z,29.13
2022-12-14T03:54:04.129Z,28.30
2022-12-14T03:56:52.719Z,29.90
2022-12-14T03:59:54.475Z,30.40
2022-12-14T04:02:39.273Z,29.02
2022-12-14T04:05:42.893Z,29.48
2022-12-14T04:08:17.976Z,27.65
2022-12-14T04:11:07.404Z,28.20
2022-12-14T04:13:59.829Z,27.98
2022-12-14T04:16:51.766Z,29.60
2022-12-14T04:19:29.156Z,27.38
2022-12-14T04:21:59.575Z,30.15
2022-12-14T04:24:54.961Z,28.27
2022-12-14T04:27:34.508Z,26.50
2022-12-14T04:30:03.675Z,28.83
2022-12-14T04:32:33.548Z,28.03
2022-12-14T04:35:15.134Z,26.67
2022-12-14T04:37:45.166Z,27.98
2022-12-14T04:40:21.063Z,28.50
2022-12-14T04:42:59.444Z,26.60
2022-12-14T04:45:41.774Z,27.90
2022-12-14T04:48:17.798Z,29.27
2022-12-14T04:50:54.373Z,29.50
2022-12-14T04:53:29.995Z,27.90
2022-12-14T04:56:11.136Z,27.48
2022-12-14T04:58:40.088Z,29.00
2022-12-14T05:01:15.920Z,27.48
2022-12-14T05:04:12.564Z,29.25
2022-12-14T05:07:00.925Z,27.75
2022-12-14T05:09:31.556Z,27.88
2022-12-14T05:12:11.633Z,27.50
2022-12-14T05:17:09.776Z,27.40
2022-12-14T05:19:37.785Z,27.55
2022-12-14T05:22:07.005Z,28.63
2022-12-14T05:24:33.848Z,27.02
2022-12-14T05:27:00.586Z,27.23
2022-12-14T05:29:27.268Z,27.20
2022-12-14T05:31:54.104Z,29.02
2022-12-14T05:34:20.895Z,28.02
2022-12-14T05:36:47.588Z,27.60
2022-12-14T05:39:15.297Z,27.00
2022-12-14T05:41:42.357Z,27.75
2022-12-14T05:44:09.225Z,26.13
2022-12-14T05:46:35.893Z,28.73
2022-12-14T05:49:02.619Z,27.88
2022-12-14T05:51:29.308Z,27.63
2022-12-14T05:53:58.336Z,28.15
2022-12-14T05:56:25.154Z,29.42
2022-12-14T05:58:52.218Z,28.88
2022-12-14T06:01:19.925Z,28.10
2022-12-14T06:03:46.924Z,27.08
2022-12-14T06:06:14.993Z,29.73
2022-12-14T06:08:44.133Z,29.58
2022-12-14T06:11:19.949Z,29.33
2022-12-14T06:13:47.280Z,28.73
2022-12-14T06:16:21.908Z,29.83
2022-12-14T06:18:54.370Z,30.13
2022-12-14T06:21:23.890Z,30.55
2022-12-14T06:23:50.583Z,27.05
2022-12-14T06:26:17.897Z,38.25
2022-12-14T06:28:45.166Z,32.90
2022-12-14T06:31:31.789Z,29.27
2022-12-14T06:34:03.533Z,30.33
2022-12-14T06:36:35.623Z,28.80
2022-12-14T06:39:06.656Z,29.85
2022-12-14T06:41:33.349Z,29.58
2022-12-14T06:44:08.271Z,29.30
2022-12-14T06:46:36.121Z,30.27
2022-12-14T06:49:03.957Z,28.45
2022-12-14T06:51:30.642Z,23.25
2022-12-14T06:53:57.939Z,27.05
2022-12-14T06:56:27.523Z,27.27
2022-12-14T06:58:55.065Z,27.83
2022-12-14T07:01:23.874Z,26.95
2022-12-14T07:03:55.783Z,26.13
2022-12-14T07:06:23.976Z,28.95
2022-12-14T07:08:53.930Z,26.67
2022-12-14T07:11:21.705Z,26.70
2022-12-14T07:13:48.992Z,28.83
2022-12-14T07:16:19.187Z,26.98
2022-12-14T07:21:15.306Z,26.52
2022-12-14T07:23:43.980Z,28.20
2022-12-14T07:26:12.083Z,24.88
2022-12-14T07:28:39.172Z,25.50
2022-12-14T07:31:10.060Z,29.02
2022-12-14T07:33:36.721Z,28.55
2022-12-14T07:36:12.567Z,28.10
2022-12-14T07:38:40.724Z,26.45
2022-12-14T07:41:16.491Z,26.90
2022-12-14T07:43:46.298Z,26.50
2022-12-14T07:46:19.916Z,25.77
2022-12-14T07:48:49.959Z,24.40
2022-12-14T07:51:19.790Z,24.88
2022-12-14T07:53:47.909Z,25.30
2022-12-14T07:56:18.166Z,22.90
2022-12-14T07:58:45.503Z,23.25
2022-12-14T08:01:15.760Z,21.70
2022-12-14T08:03:48.566Z,23.42
2022-12-14T08:06:17.108Z,22.67
2022-12-14T08:08:44.508Z,23.33
2022-12-14T08:11:12.690Z,22.55
2022-12-14T08:13:40.100Z,23.10
2022-12-14T08:16:09.787Z,21.50
2022-12-14T08:18:36.872Z,21.85
2022-12-14T08:21:05.256Z,22.50
2022-12-14T08:23:32.804Z,21.70
2022-12-14T08:26:01.386Z,24.58
2022-12-14T08:28:29.684Z,23.23
2022-12-14T08:30:56.784Z,23.38
2022-12-14T08:33:24.483Z,21.58
2022-12-14T08:35:51.578Z,22.63
2022-12-14T08:38:18.287Z,21.42
2022-12-14T08:40:45.022Z,21.60
2022-12-14T08:43:11.803Z,22.60
2022-12-14T08:45:39.146Z,22.27
2022-12-14T08:48:06.078Z,25.95
2022-12-14T08:50:32.884Z,27.15
2022-12-14T08:52:59.803Z,27.48
2022-12-14T08:55:30.223Z,28.65
2022-12-14T08:57:59.278Z,27.52
2022-12-14T09:00:26.003Z,27.42
2022-12-14T09:02:52.883Z,28.33
2022-12-14T09:05:19.779Z,28.23
2022-12-14T09:07:46.597Z,27.35
2022-12-14T09:10:13.617Z,27.10
2022-12-14T09:12:40.496Z,28.50
2022-12-14T09:15:08.075Z,27.60
2022-12-14T09:17:34.845Z,29.77
2022-12-14T09:20:01.758Z,27.38
2022-12-14T09:22:28.728Z,26.23
2022-12-14T09:24:55.483Z,25.63
2022-12-14T09:27:22.528Z,29.20
2022-12-14T09:29:50.476Z,28.80
2022-12-14T09:32:17.215Z,26.30
2022-12-14T09:34:44.047Z,26.33
2022-12-14T09:37:10.829Z,31.13
2022-12-14T09:39:37.686Z,28.90
2022-12-14T09:42:26.132Z,26.63
2022-12-14T09:45:05.899Z,27.83
2022-12-14T09:47:43.186Z,27.00
2022-12-14T09:50:16.688Z,26.02
2022-12-14T09:52:52.336Z,22.63
2022-12-14T09:55:26.944Z,20.42
2022-12-14T09:58:14.371Z,21.67
2022-12-14T10:00:53.850Z,20.88
2022-12-14T10:04:09.098Z,20.48
2022-12-14T10:07:12.736Z,21.10
2022-12-14T10:10:13.705Z,21.70
2022-12-14T10:13:28.651Z,20.42
2022-12-14T10:16:16.247Z,21.50
2022-12-14T10:19:10.198Z,20.80
2022-12-14T10:21:54.463Z,23.67
2022-12-14T10:24:26.384Z,22.15
2022-12-14T10:26:55.639Z,21.88
2022-12-14T10:29:37.547Z,20.95
2022-12-14T10:32:28.368Z,20.60
2022-12-14T10:34:55.053Z,21.00
2022-12-14T10:37:37.802Z,21.35
2022-12-14T10:40:17.604Z,21.23
2022-12-14T10:43:12.405Z,21.73
2022-12-14T10:46:14.230Z,22.88
2022-12-14T10:49:12.175Z,24.75
2022-12-14T10:51:41.738Z,23.88
2022-12-14T10:54:26.628Z,24.45
2022-12-14T10:56:53.717Z,22.58
2022-12-14T10:59:26.567Z,23.95
2022-12-14T11:01:55.596Z,26.20
2022-12-14T11:04:29.802Z,26.27
2022-12-14T11:07:02.727Z,26.73
2022-12-14T11:09:30.027Z,23.90
2022-12-14T11:11:59.699Z,22.58
2022-12-14T11:14:27.662Z,22.60
2022-12-14T11:16:54.552Z,24.17
2022-12-14T11:19:24.725Z,23.45
2022-12-14T11:24:31.379Z,21.50
2022-12-14T11:27:03.874Z,22.90
2022-12-14T11:29:39.316Z,24.95
2022-12-14T11:32:06.917Z,23.88
2022-12-14T11:34:39.447Z,23.08
2022-12-14T11:37:11.568Z,23.70
2022-12-14T11:39:42.481Z,23.08
2022-12-14T11:42:17.306Z,22.58
2022-12-14T11:44:45.916Z,24.48
2022-12-14T11:47:15.768Z,21.42
2022-12-14T11:49:44.650Z,23.88
2022-12-14T11:52:18.286Z,21.90
2022-12-14T11:55:03.928Z,20.45
2022-12-14T11:57:41.293Z,22.83
2022-12-14T12:00:41.321Z,23.17
2022-12-14T12:03:47.865Z,22.63
2022-12-14T12:06:20.970Z,21.17
2022-12-14T12:08:53.689Z,19.53
2022-12-14T12:11:23.550Z,18.73
2022-12-14T12:13:52.520Z,20.05
2022-12-14T12:16:26.290Z,17.25
2022-12-14T12:18:58.917Z,19.90
2022-12-14T12:21:31.044Z,19.08
2022-12-14T12:24:18.357Z,18.63
2022-12-14T12:27:12.080Z,16.58
2022-12-14T12:29:41.605Z,17.20
2022-12-14T12:32:14.238Z,17.90
2022-12-14T12:34:43.907Z,22.85
2022-12-14T12:37:31.524Z,16.13
2022-12-14T12:40:04.046Z,16.83
2022-12-14T12:42:58.939Z,17.15
2022-12-14T12:45:34.503Z,18.50
2022-12-14T12:48:07.592Z,18.38
2022-12-14T12:50:39.596Z,18.77
2022-12-14T12:53:19.045Z,18.15
2022-12-14T12:55:53.614Z,17.73
2022-12-14T12:58:25.002Z,18.40
2022-12-14T13:00:55.576Z,17.38
2022-12-14T13:03:37.422Z,16.58
2022-12-14T13:06:28.007Z,18.35
2022-12-14T13:09:01.086Z,21.77
2022-12-14T13:11:38.221Z,16.83
2022-12-14T13:14:30.703Z,19.48
2022-12-14T13:17:00.297Z,17.70
2022-12-14T13:19:50.577Z,16.88
2022-12-14T13:22:31.840Z,19.25
2022-12-14T13:25:08.139Z,16.30
2022-12-14T13:28:12.413Z,16.60
2022-12-14T13:30:48.631Z,19.20
2022-12-14T13:33:33.619Z,16.10
2022-12-14T13:36:20.665Z,16.48
2022-12-14T13:39:21.184Z,18.27
2022-12-14T13:42:06.599Z,17.90
2022-12-14T13:45:01.391Z,17.23
2022-12-14T13:47:37.055Z,17.48
2022-12-14T13:50:34.863Z,15.80
2022-12-14T13:52:59.369Z,16.70
2022-12-14T13:55:38.791Z,16.02
2022-12-14T13:58:16.111Z,16.70
2022-12-14T14:00:45.847Z,15.57
2022-12-14T14:03:35.645Z,16.48
2022-12-14T14:06:14.718Z,20.13
2022-12-14T14:08:49.755Z,16.40
2022-12-14T14:11:36.476Z,18.38
2022-12-14T14:14:19.254Z,16.35
2022-12-14T14:16:51.920Z,17.77
2022-12-14T14:19:24.442Z,18.75
2022-12-14T14:22:25.179Z,19.10
2022-12-14T14:24:58.270Z,19.15
2022-12-14T14:27:50.270Z,18.55
2022-12-14T14:30:36.583Z,17.10
2022-12-14T14:33:44.979Z,17.38
2022-12-14T14:36:16.606Z,16.92
2022-12-14T14:38:44.021Z,16.70
2022-12-14T14:41:20.345Z,16.55
2022-12-14T14:44:00.196Z,15.68
2022-12-14T14:46:46.906Z,16.83
2022-12-14T14:49:24.533Z,20.60
2022-12-14T14:51:51.324Z,19.52
2022-12-14T14:54:46.167Z,18.58
2022-12-14T14:57:35.332Z,18.92
2022-12-14T15:00:05.048Z,18.67
2022-12-14T15:02:39.316Z,18.85
2022-12-14T15:07:58.617Z,17.17
2022-12-14T15:10:38.537Z,18.20
2022-12-14T15:13:43.685Z,18.92
2022-12-14T15:16:33.964Z,20.30
2022-12-14T15:19:29.350Z,19.50
2022-12-14T15:22:30.504Z,19.98
2022-12-14T15:25:00.577Z,20.00
2022-12-14T15:30:23.318Z,20.20
2022-12-14T15:32:56.341Z,21.38
2022-12-14T15:35:32.885Z,21.80
2022-12-14T15:38:18.564Z,22.83
2022-12-14T15:41:12.607Z,26.02
2022-12-14T15:43:47.496Z,24.58
2022-12-14T15:46:24.273Z,21.92
2022-12-14T15:49:00.089Z,23.38
2022-12-14T15:51:41.838Z,25.92
2022-12-14T15:54:15.947Z,26.98
2022-12-14T15:56:45.594Z,27.83
2022-12-14T15:59:27.093Z,25.88
2022-12-14T16:02:31.107Z,27.73
2022-12-14T16:05:02.166Z,30.27
2022-12-14T16:07:39.232Z,28.35
2022-12-14T16:10:24.067Z,30.60
2022-12-14T16:12:55.555Z,32.10
2022-12-14T16:15:25.861Z,30.98
2022-12-14T16:18:01.036Z,29.30
2022-12-14T16:20:31.898Z,31.42
2022-12-14T16:25:26.202Z,29.25
2022-12-14T16:27:53.597Z,32.08
2022-12-14T16:30:27.302Z,32.45
2022-12-14T16:33:17.361Z,34.78
2022-12-14T16:35:45.551Z,33.70
2022-12-14T16:38:14.857Z,36.33
2022-12-14T16:40:55.343Z,33.45
2022-12-14T16:43:36.686Z,33.90
2022-12-14T16:46:03.366Z,33.78
2022-12-14T16:48:31.613Z,32.85
2022-12-14T16:51:32.777Z,32.30
2022-12-14T16:54:20.825Z,32.80
2022-12-14T16:57:01.108Z,30.60
2022-12-14T16:59:42.939Z,32.75
2022-12-14T17:02:28.628Z,34.50
2022-12-14T17:04:57.508Z,34.75
2022-12-14T17:07:27.188Z,33.22
2022-12-14T17:09:56.345Z,36.45
2022-12-14T17:12:25.424Z,32.53
2022-12-14T17:14:52.746Z,31.65
2022-12-14T17:17:33.301Z,35.70
2022-12-14T17:20:00.494Z,31.33
2022-12-14T17:22:31.010Z,31.45
2022-12-14T17:24:59.299Z,32.35
2022-12-14T17:27:26.822Z,32.63
2022-12-14T17:29:54.453Z,32.13
2022-12-14T17:32:22.199Z,30.65
2022-12-14T17:34:48.955Z,30.35
2022-12-14T17:37:16.986Z,28.15
2022-12-14T17:39:43.683Z,27.00
2022-12-14T17:42:13.191Z,29.50
2022-12-14T17:44:41.935Z,29.92
2022-12-14T17:47:13.386Z,28.05
2022-12-14T17:49:42.252Z,28.13
2022-12-14T17:52:18.927Z,29.48
2022-12-14T17:54:46.045Z,31.20
2022-12-14T17:57:25.078Z,31.92
2022-12-14T18:00:10.580Z,29.42
2022-12-14T18:02:37.874Z,32.53
2022-12-14T18:05:05.439Z,30.77
2022-12-14T18:07:32.172Z,31.95
2022-12-14T18:09:58.823Z,28.05
2022-12-14T18:12:25.866Z,32.03
2022-12-14T18:14:52.724Z,32.20
2022-12-14T18:17:19.600Z,32.72
2022-12-14T18:19:47.750Z,33.83
2022-12-14T18:22:16.394Z,30.65
2022-12-14T18:24:43.055Z,29.65
2022-12-14T18:27:09.729Z,31.80
2022-12-14T18:29:38.813Z,35.05
2022-12-14T18:32:05.654Z,34.22
2022-12-14T18:34:32.741Z,35.97
2022-12-14T18:36:59.601Z,33.47
2022-12-14T18:39:26.292Z,33.58
2022-12-14T18:41:52.988Z,34.95
2022-12-14T18:44:19.709Z,32.65
2022-12-14T18:46:49.406Z,32.63
2022-12-14T18:49:16.346Z,33.45
2022-12-14T18:51:43.557Z,31.45
2022-12-14T18:54:11.631Z,34.85
2022-12-14T18:56:41.045Z,34.20
2022-12-14T18:59:07.819Z,30.83
2022-12-14T19:01:34.611Z,30.05
2022-12-14T19:04:01.590Z,28.13
2022-12-14T19:06:45.204Z,28.17
2022-12-14T19:09:13.576Z,26.85
2022-12-14T19:11:43.893Z,28.85
2022-12-14T19:14:11.212Z,32.08
2022-12-14T19:16:38.435Z,30.75
2022-12-14T19:19:05.297Z,28.13
2022-12-14T19:21:32.031Z,30.08
2022-12-14T19:24:00.271Z,29.10
2022-12-14T19:26:28.476Z,31.95
2022-12-14T19:28:55.368Z,32.08
2022-12-14T19:31:22.165Z,33.13
2022-12-14T19:33:48.892Z,32.00
2022-12-14T19:36:15.690Z,33.17
2022-12-14T19:38:42.398Z,31.25
2022-12-14T19:41:12.113Z,29.25
2022-12-14T19:43:38.853Z,29.13
2022-12-14T19:46:10.345Z,28.58
2022-12-14T19:48:42.169Z,27.10
2022-12-14T19:51:11.784Z,27.80
2022-12-14T19:53:40.446Z,22.85
2022-12-14T19:56:07.405Z,27.83
2022-12-14T19:58:34.476Z,28.60
2022-12-14T20:01:01.504Z,28.60
2022-12-14T20:03:28.669Z,24.40
2022-12-14T20:06:00.922Z,29.00
2022-12-14T20:08:29.563Z,27.77
2022-12-14T20:10:57.090Z,27.45
2022-12-14T20:13:26.629Z,28.15
2022-12-14T20:16:02.035Z,27.90
2022-12-14T20:18:30.392Z,27.20
2022-12-14T20:21:04.950Z,28.98
2022-12-14T20:23:35.155Z,30.95
2022-12-14T20:26:04.171Z,31.15
2022-12-14T20:28:31.160Z,31.17
2022-12-14T20:30:58.057Z,30.98
2022-12-14T20:33:29.811Z,27.48
2022-12-14T20:35:57.561Z,26.92
2022-12-14T20:38:24.481Z,28.33
2022-12-14T20:40:51.273Z,27.30
2022-12-14T20:43:17.975Z,25.45
2022-12-14T20:45:44.791Z,23.33
2022-12-14T20:48:11.524Z,22.33
2022-12-14T20:50:40.515Z,25.77
2022-12-14T20:53:07.701Z,21.65
2022-12-14T20:55:35.425Z,23.52
2022-12-14T20:58:02.199Z,19.48
2022-12-14T21:00:29.346Z,23.33
2022-12-14T21:02:56.172Z,18.90
2022-12-14T21:05:23.113Z,20.02
2022-12-14T21:07:49.888Z,20.33
2022-12-14T21:10:16.619Z,22.13
2022-12-14T21:12:43.327Z,23.27
2022-12-14T21:15:10.101Z,21.88
2022-12-14T21:17:36.872Z,22.60
2022-12-14T21:20:05.147Z,24.92
2022-12-14T21:22:32.363Z,21.83
2022-12-14T21:25:04.391Z,22.55
2022-12-14T21:27:33.510Z,25.27
2022-12-14T21:30:00.838Z,19.85
2022-12-14T21:32:27.685Z,22.60
2022-12-14T21:34:54.526Z,19.92
2022-12-14T21:37:21.957Z,19.73
2022-12-14T21:39:54.102Z,20.48
2022-12-14T21:42:23.289Z,20.70
2022-12-14T21:44:51.495Z,20.40
2022-12-14T21:47:29.070Z,18.98
2022-12-14T21:49:56.086Z,16.02
2022-12-14T21:52:25.693Z,15.05
2022-12-14T21:54:52.505Z,16.75
2022-12-14T21:57:42.682Z,16.90
2022-12-14T22:02:37.045Z,10.48
2022-12-14T22:05:04.590Z,14.13
2022-12-14T22:07:33.383Z,9.90
2022-12-14T22:10:00.273Z,13.18
2022-12-14T22:12:27.371Z,11.23
2022-12-14T22:14:54.203Z,13.05
2022-12-14T22:17:20.937Z,13.90
2022-12-14T22:19:48.902Z,13.07
2022-12-14T22:22:16.740Z,13.10
2022-12-14T22:24:44.886Z,12.70
2022-12-14T22:27:12.300Z,14.00
2022-12-14T22:29:39.301Z,13.02
2022-12-14T22:32:06.914Z,12.02
2022-12-14T22:34:33.829Z,13.85
2022-12-14T22:37:00.515Z,13.93
2022-12-14T22:39:27.207Z,13.95
2022-12-14T22:41:53.895Z,11.35
2022-12-14T22:44:20.597Z,12.52
2022-12-14T22:46:47.328Z,13.60
2022-12-14T22:49:19.082Z,13.27
2022-12-14T22:51:46.592Z,11.85
2022-12-14T22:54:22.773Z,13.43
2022-12-14T22:56:57.043Z,12.68
2022-12-14T22:59:33.414Z,11.65
2022-12-14T23:02:00.425Z,12.20
2022-12-14T23:04:27.354Z,10.82
2022-12-14T23:06:54.797Z,12.88
2022-12-14T23:09:40.142Z,11.98
2022-12-14T23:12:25.702Z,12.73
2022-12-14T23:15:11.210Z,12.68
2022-12-14T23:17:56.684Z,13.77
2022-12-14T23:20:42.173Z,14.00
2022-12-14T23:23:28.023Z,13.38
2022-12-14T23:26:13.798Z,14.85
2022-12-14T23:28:59.279Z,13.05
2022-12-14T23:31:44.854Z,13.98
2022-12-14T23:34:30.359Z,12.98
2022-12-14T23:37:20.230Z,12.73
2022-12-14T23:40:06.251Z,11.50
2022-12-14T23:42:51.794Z,11.93
2022-12-14T23:45:37.344Z,11.60
2022-12-14T23:48:22.316Z,12.20
2022-12-14T23:51:07.827Z,12.70
2022-12-14T23:53:53.104Z,9.48
2022-12-14T23:56:38.228Z,9.05
2022-12-14T23:59:29.914Z,11.27
